ROMMA est une association bénévole à but non lucratif. Votre soutien est indispensable : ADHERER à ROMMA ou FAIRE un DON

Granges-lès-Beaumont - (26, Drôme)

Drôme des Collines (155 m)   Longitude: 04°58'E   Latitude: 45°03'N Station partenaire n°123
 

Détail journalier du     <<     >>

Température Precipitation Humidité Pression Vent Dir Rafale Dir. rafale Ensol.
Heure (°C) (mm) (%) (hPa) (km/h) (km/h) (min)
01:00 15.906710139NNO18NNO0
02:00 15.307210128NNO15NO0
03:00 15.907110128NNE15NNO0
04:00 15.707210124NE16NNE0
05:00 15.307310116ENE16ENE0
06:00 14.407510128NE15NE0
07:00 14.207810127NE15ENE0
08:00 15.507610117NNE19NNE0
09:00 16.8074101113N27N0
10:00 18.3068101119NNO37NNO10
11:00 20.9062101120NNO34NNO60
12:00 21.2060101020NNO34NO50
13:00 22.2056101018NNO37N30
14:00 23.0053100921NNO40NNO60
15:00 22.8055100920NNO39NNO40
16:00 21.9056100919N37NNO10
17:00 22.4051100821NNO40NNO40
18:00 22.3050100821NNO40NO30
19:00 21.6054100819NO35NNO60
20:00 19.8057100818NNO39NO10
21:00 18.5060100914NNO31NO0
22:00 17.106610098NNE19NNE0
23:00 16.107210098NNE13NNE0
minuit 15.407710094N6N0

Graphique du 27-05-2019

 

Serveur OMMA